ADDS METAR Data INFO
IDs: Format: Raw Decoded Include TAF

Data at: 1944 UTC 17 Feb 2018

KGNB 171935Z AUTO 25017G23KT 10SM CLR 01/M12 A3012 RMK AO2 T00111117
KGNB 171915Z AUTO 24014G21KT 10SM CLR 01/M11 A3014 RMK AO2 T00081115
KGNB 171850Z AUTO 28010G19KT 10SM CLR 00/M11 A3015 RMK AO2 T00001112
KGNB 171830Z AUTO 25011G14KT 10SM CLR 00/M11 A3016 RMK AO2 T10011115
KGNB 171815Z AUTO 26011G17KT 10SM CLR 00/M11 A3016 RMK AO2 T10041113
KGNB 171755Z AUTO 25010KT 10SM CLR M01/M11 A3017 RMK AO2 T10111111 11011 21056
KGNB 171735Z AUTO 24010G14KT 10SM CLR M02/M11 A3017 RMK AO2 T10161113
KGNB 171715Z AUTO 25005KT 10SM CLR M02/M11 A3017 RMK AO2 T10251115
KGNB 171650Z AUTO 28007KT 10SM CLR M03/M12 A3018 RMK AO2 T10341118
KGNB 171635Z AUTO 27006KT 10SM CLR M04/M12 A3018 RMK AO2 T10361118
KGNB 171615Z AUTO 27007KT 10SM CLR M04/M12 A3017 RMK AO2 T10381120
KGNB 171555Z AUTO 25013KT 10SM CLR M04/M12 A3016 RMK AO2 T10411121
KGNB 171535Z AUTO 24012G19KT 10SM CLR M05/M12 A3015 RMK AO2 T10461122
KGNB 171510Z AUTO 26013G17KT 10SM CLR M06/M13 A3015 RMK AO2 T10561127
KGNB 171450Z AUTO 25014G18KT 10SM SCT036 SCT043 SCT049 M05/M12 A3014 RMK AO2 T10521125
KGNB 171430Z AUTO 25015G25KT 10SM SCT027 BKN042 OVC050 M06/M13 A3012 RMK AO2 T10561126
KGNB 171410Z AUTO 26013G20KT 10SM SCT032 BKN039 OVC045 M05/M12 A3011 RMK AO2 T10551123
KGNB 171355Z AUTO 27018G25KT 10SM SCT029 SCT034 OVC041 M05/M12 A3011 RMK AO2 T10551122
KGNB 171330Z AUTO 26024G30KT 10SM SCT030 BKN038 OVC046 M06/M12 A3009 RMK AO2 T10561116
KGNB 171310Z AUTO 26012G23KT 10SM SCT038 OVC045 M05/M12 A3009 RMK AO2 T10551117
KGNB 171255Z AUTO 25017G23KT 10SM SCT039 BKN047 OVC050 M05/M12 A3009 RMK AO2 T10551117
KGNB 171230Z AUTO 27014G23KT 10SM SCT026 BKN039 OVC055 M05/M12 A3008 RMK AO2 T10521121
KGNB 171215Z AUTO 27012G20KT 10SM SCT026 BKN040 OVC055 M05/M12 A3007 RMK AO2 T10531123
KGNB 171155Z AUTO 27013KT 10SM SCT040 BKN049 OVC055 M05/M13 A3005 RMK AO2 T10521126 11035 21052
KGNB 171130Z AUTO 27013G16KT 10SM SCT044 OVC055 M05/M13 A3006 RMK AO2 T10511128
KGNB 171115Z AUTO 28010G16KT 10SM SCT048 OVC055 M05/M13 A3005 RMK AO2 T10491129
KGNB 171050Z AUTO 28012G16KT 10SM SCT048 OVC055 M05/M13 A3004 RMK AO2 T10461126
KGNB 171030Z AUTO 27008KT 10SM BKN049 OVC060 M05/M12 A3004 RMK AO2 T10461125
KGNB 171015Z AUTO 26008KT 10SM BKN047 OVC060 M05/M12 A3004 RMK AO2 T10461119
KGNB 170955Z AUTO 27007KT 10SM BKN045 OVC050 M05/M12 A3004 RMK AO2 T10481117
KGNB 170935Z AUTO 26012KT 10SM OVC050 M04/M12 A3003 RMK AO2 T10441116
KGNB 170910Z AUTO 28011G16KT 10SM OVC050 M04/M12 A3002 RMK AO2 T10431118
KGNB 170855Z AUTO 29009G19KT 10SM OVC050 M04/M12 A3001 RMK AO2 T10401120
KGNB 170835Z AUTO 27014KT 10SM OVC050 M04/M12 A2999 RMK AO2 T10401119
KGNB 170815Z AUTO 29011G15KT 10SM SCT044 OVC050 M04/M12 A2997 RMK AO2 T10401117
KGNB 170755Z AUTO 27011G21KT 10SM OVC050 M04/M12 A2997 RMK AO2 T10391118
KGNB 170730Z AUTO 27022G29KT 10SM OVC060 M04/M12 A2993 RMK AO2 T10401118
KGNB 170715Z AUTO 25018G24KT 10SM OVC060 M04/M12 A2993 RMK AO2 T10411116
KGNB 170655Z AUTO 25015G24KT 10SM OVC060 M04/M12 A2993 RMK AO2 T10401116 410161191
KGNB 170635Z AUTO 25019G30KT 10SM OVC060 M04/M12 A2993 RMK AO2 T10371119
KGNB 170615Z AUTO 26015G24KT 10SM OVC060 M04/M12 A2994 RMK AO2 T10361120
KGNB 170550Z AUTO 26020G31KT 10SM OVC060 M03/M12 A2993 RMK AO2 T10351121 11016 21040
KGNB 170535Z AUTO 26018G24KT 10SM OVC060 M03/M12 A2992 RMK AO2 T10351120
KGNB 170510Z AUTO 26016G22KT 10SM SCT060 M04/M12 A2991 RMK AO2 T10401125
KGNB 170455Z AUTO 25018G24KT 10SM CLR M04/M12 A2991 RMK AO2 T10371125
KGNB 170435Z AUTO 25021G30KT 10SM CLR M04/M12 A2991 RMK AO2 T10361124
KGNB 170415Z AUTO 24020G27KT 10SM CLR M04/M12 A2991 RMK AO2 T10361123
KGNB 170350Z AUTO 24021G27KT 10SM SCT041 BKN050 OVC110 M03/M13 A2992 RMK AO2 T10301129
KGNB 170330Z AUTO 25024G40KT 10SM BKN048 OVC060 M03/M13 A2992 RMK AO2 T10291126
KGNB 170315Z AUTO 25020G27KT 10SM BKN050 OVC065 M03/M12 A2992 RMK AO2 T10261118
KGNB 170250Z AUTO 25018G29KT 10SM BKN065 OVC080 M02/M11 A2992 RMK AO2 T10231114
KGNB 170230Z AUTO 25018G26KT 10SM SCT065 SCT080 M02/M12 A2993 RMK AO2 T10251118
KGNB 170210Z AUTO 24021G26KT 10SM CLR M03/M13 A2992 RMK AO2 T10271127
KGNB 170150Z AUTO 25022G28KT 10SM CLR M02/M13 A2992 RMK AO2 T10251130
KGNB 170135Z AUTO 25024G31KT 10SM SCT070 M02/M14 A2992 RMK AO2 T10251137
KGNB 170110Z AUTO 24017G23KT 10SM SCT080 M02/M14 A2992 RMK AO2 T10251142
KGNB 170055Z AUTO 24015G24KT 10SM SCT080 M02/M14 A2992 RMK AO2 T10221145
KGNB 170035Z AUTO 25018G23KT 10SM CLR M02/M14 A2993 RMK AO2 T10211145
KGNB 170015Z AUTO 26013G22KT 10SM CLR M02/M14 A2993 RMK AO2 T10221144
KGNB 162355Z AUTO 25008KT 10SM CLR M02/M15 A2995 RMK AO2 T10191150 11018 21113
KGNB 162330Z AUTO 23003KT 10SM CLR M02/M13 A2997 RMK AO2 T10181134
KGNB 162310Z AUTO 07005KT 10SM CLR M02/M13 A2998 RMK AO2 T10211133
KGNB 162250Z AUTO 04005KT 10SM CLR M02/M13 A2999 RMK AO2 T10251127
KGNB 162230Z AUTO 03006KT 10SM CLR M02/M13 A3000 RMK AO2 T10211126
KGNB 162215Z AUTO 02006KT 10SM CLR M02/M12 A3000 RMK AO2 T10211121
KGNB 162155Z AUTO 03004KT 10SM CLR M03/M13 A3002 RMK AO2 T10271131
KGNB 162130Z AUTO 04003KT 10SM SCT085 M03/M13 A3003 RMK AO2 T10301133
KGNB 162110Z AUTO 00000KT 10SM SCT085 M03/M14 A3004 RMK AO2 T10311142
KGNB 162055Z AUTO 08003KT 10SM CLR M03/M14 A3006 RMK AO2 T10331138
KGNB 162035Z AUTO 00000KT 10SM CLR M04/M13 A3008 RMK AO2 T10381135
KGNB 162015Z AUTO 00000KT 10SM CLR M05/M13 A3008 RMK AO2 T10501126
KGNB 161950Z AUTO 00000KT 10SM CLR M06/M13 A3010 RMK AO2 T10621129
KGNB 161935Z AUTO 22003KT 10SM CLR M07/M13 A3012 RMK AO2 T10661132
KGNB 161910Z AUTO 00000KT 10SM CLR M08/M14 A3015 RMK AO2 T10781137
KGNB 161855Z AUTO 00000KT 10SM CLR M08/M14 A3015 RMK AO2 T10831139
KGNB 161830Z AUTO 00000KT 10SM CLR M10/M15 A3017 RMK AO2 T11001146
KGNB 161815Z AUTO 00000KT 10SM CLR M10/M15 A3018 RMK AO2 T11031146
KGNB 161750Z AUTO 00000KT 10SM CLR M11/M15 A3020 RMK AO2 T11141154 11114 21191
KGNB 161730Z AUTO 00000KT 10SM CLR M12/M16 A3020 RMK AO2 T11251161
KGNB 161710Z AUTO 00000KT 10SM CLR M13/M16 A3022 RMK AO2 T11331165
KGNB 161655Z AUTO 00000KT 10SM CLR M14/M17 A3022 RMK AO2 T11391170
KGNB 161635Z AUTO 00000KT 10SM CLR M15/M18 A3024 RMK AO2 T11471176
KGNB 161615Z AUTO 00000KT 10SM CLR M15/M18 A3024 RMK AO2 T11461176
KGNB 161555Z AUTO 00000KT 10SM SCT030 M15/M18 A3024 RMK AO2 T11511177
KGNB 161535Z AUTO 00000KT 10SM CLR M16/M18 A3024 RMK AO2 T11601184
KGNB 161510Z AUTO 00000KT 10SM CLR M17/M19 A3025 RMK AO2 T11671188
KGNB 161455Z AUTO 04003KT 10SM CLR M18/M20 A3024 RMK AO2 T11791198
KGNB 161430Z AUTO 00000KT 10SM CLR M19/M21 A3024 RMK AO2 T11911208
KGNB 161415Z AUTO 00000KT 10SM -SN CLR M18/M20 A3024 RMK AO2 T11801198
KGNB 161355Z AUTO 00000KT 10SM -SN SCT040 M18/M19 A3023 RMK AO2 T11771193
KGNB 161335Z AUTO 00000KT 10SM SCT040 M17/M19 A3023 RMK AO2 T11721187
KGNB 161310Z AUTO 00000KT 4SM -SN BKN038 M17/M18 A3024 RMK AO2 T11661183
KGNB 161255Z AUTO 06003KT 7SM -SN BKN038 M17/M19 A3024 RMK AO2 T11751195
KGNB 161230Z AUTO 00000KT 5SM -SN OVC038 M17/M19 A3024 RMK AO2 T11701191
KGNB 161210Z AUTO 05004KT 10SM OVC040 M16/M19 A3023 RMK AO2 T11651186
KGNB 161155Z AUTO 03004KT 10SM OVC042 M16/M18 A3024 RMK AO2 T11631181 11089 21168
KGNB 161135Z AUTO 04003KT 10SM OVC044 M17/M18 A3024 RMK AO2 T11661185
KGNB 161110Z AUTO 04005KT 10SM BKN050 M16/M17 A3024 RMK AO2 T11561174
KGNB 161050Z AUTO 04005KT 10SM CLR M16/M18 A3025 RMK AO2 T11631181
KGNB 161035Z AUTO 07005KT 10SM CLR M16/M17 A3025 RMK AO2 T11601175
KGNB 161015Z AUTO 07006KT 10SM CLR M16/M18 A3025 RMK AO2 T11591179
KGNB 160955Z AUTO 00000KT 10SM CLR M14/M16 A3026 RMK AO2 T11441161
KGNB 160930Z AUTO 00000KT 10SM CLR M13/M15 A3026 RMK AO2 T11351153
KGNB 160915Z AUTO 13003KT 10SM CLR M13/M15 A3026 RMK AO2 T11311153
KGNB 160855Z AUTO 15003KT 10SM CLR M12/M15 A3026 RMK AO2 T11211146
KGNB 160835Z AUTO 15004KT 10SM -SN SCT023 SCT050 M11/M14 A3025 RMK AO2 T11111140
KGNB 160815Z AUTO 00000KT 10SM SCT023 BKN050 BKN065 M10/M13 A3025 RMK AO2 T11031134
KGNB 160755Z AUTO 19004KT 10SM SCT050 SCT065 M10/M13 A3025 RMK AO2 T10991130